Time;durP1;ratioP1;P1;durP2;ratioP2;P2;SDS_P1;SDS_P2;PMS_P1;PMS_P2;Temp;Humidity;BMP_temperature;BMP_pressure;BME280_temperature;BME280_humidity;BME280_pressure;Samples;Min_cycle;Max_cycle;Signal;HPM_P1;HPM_P2
2023/04/25 00:00:19;;;;;;;6.88;2.42;;;7.70;99.90;;;;;;5043456;28;20559;-44
2023/04/25 00:02:48;;;;;;;12.35;3.13;;;7.70;99.90;;;;;;5043149;28;20035;-44
2023/04/25 00:05:16;;;;;;;6.80;2.28;;;7.60;99.90;;;;;;5043682;28;20040;-43
2023/04/25 00:07:42;;;;;;;5.75;2.13;;;7.50;99.90;;;;;;5042653;28;20463;-44
2023/04/25 00:10:10;;;;;;;7.28;2.40;;;7.50;99.90;;;;;;5043033;28;20021;-43
2023/04/25 00:12:36;;;;;;;4.90;1.83;;;7.50;99.90;;;;;;5043111;28;20024;-43
2023/04/25 00:15:04;;;;;;;9.18;2.50;;;7.40;99.90;;;;;;5043716;28;20040;-43
2023/04/25 00:17:31;;;;;;;6.03;2.00;;;7.40;99.90;;;;;;5042631;28;20060;-43
2023/04/25 00:19:57;;;;;;;5.38;2.30;;;7.40;99.90;;;;;;5042964;28;20064;-42
2023/04/25 00:22:23;;;;;;;5.05;2.20;;;7.30;99.90;;;;;;5043099;28;20626;-43
2023/04/25 00:24:49;;;;;;;6.90;2.00;;;7.30;99.90;;;;;;5043086;28;20028;-43
2023/04/25 00:27:15;;;;;;;8.90;2.53;;;7.20;99.90;;;;;;5044447;28;20035;-43
2023/04/25 00:29:40;;;;;;;11.48;2.60;;;7.20;99.90;;;;;;5042785;28;20083;-43
2023/04/25 00:32:06;;;;;;;7.40;1.98;;;7.20;99.90;;;;;;5043089;28;20029;-43
2023/04/25 00:34:31;;;;;;;5.20;2.65;;;7.20;99.90;;;;;;5042773;28;20045;-44
2023/04/25 00:36:57;;;;;;;5.60;2.25;;;7.20;99.90;;;;;;5042756;28;20021;-43
2023/04/25 00:39:22;;;;;;;10.75;3.45;;;7.10;99.90;;;;;;5042314;28;20033;-44
2023/04/25 00:41:48;;;;;;;5.00;2.08;;;7.20;99.90;;;;;;5042346;28;20025;-44
2023/04/25 00:44:18;;;;;;;5.18;1.90;;;7.20;99.90;;;;;;5042765;28;20090;-43
2023/04/25 00:46:45;;;;;;;5.75;2.60;;;7.20;99.90;;;;;;5042534;28;20025;-44
2023/04/25 00:49:15;;;;;;;8.77;3.10;;;7.20;99.90;;;;;;5042683;28;20036;-43
2023/04/25 00:51:40;;;;;;;4.22;1.75;;;7.30;99.90;;;;;;5042148;28;20052;-43
2023/04/25 00:54:06;;;;;;;6.22;1.90;;;7.20;99.90;;;;;;5042096;28;20067;-43
2023/04/25 00:56:32;;;;;;;8.13;2.40;;;7.20;99.90;;;;;;5042667;28;20078;-43
2023/04/25 00:58:58;;;;;;;8.25;2.83;;;7.10;99.90;;;;;;5041999;28;20036;-43
2023/04/25 01:01:24;;;;;;;9.45;2.60;;;7.00;99.90;;;;;;5043249;28;20229;-43
2023/04/25 01:03:50;;;;;;;7.03;2.28;;;7.00;99.90;;;;;;5042642;28;20103;-44
2023/04/25 01:06:16;;;;;;;7.55;2.75;;;6.90;99.90;;;;;;5042141;28;20064;-43
2023/04/25 01:08:45;;;;;;;7.43;2.45;;;6.90;99.90;;;;;;5042526;28;20029;-43
2023/04/25 01:11:14;;;;;;;10.57;2.55;;;6.80;99.90;;;;;;5042129;28;20564;-43
2023/04/25 01:13:40;;;;;;;6.57;2.83;;;6.80;99.90;;;;;;5041394;28;20040;-43
2023/04/25 01:16:08;;;;;;;9.02;3.17;;;6.80;99.90;;;;;;5041773;28;20028;-43
2023/04/25 01:18:39;;;;;;;7.78;2.70;;;6.70;99.90;;;;;;5041796;28;20085;-44
2023/04/25 01:21:12;;;;;;;6.82;2.22;;;6.70;99.90;;;;;;5041726;28;20488;-44
2023/04/25 01:23:40;;;;;;;7.65;2.63;;;6.80;99.90;;;;;;5041605;28;20025;-43
2023/04/25 01:26:10;;;;;;;5.13;2.63;;;6.80;99.90;;;;;;5041415;28;20066;-43
2023/04/25 01:28:36;;;;;;;7.05;2.65;;;6.80;99.90;;;;;;5041824;28;20033;-43
2023/04/25 01:31:02;;;;;;;8.20;2.40;;;6.80;99.90;;;;;;5040478;28;20017;-43
2023/04/25 01:33:30;;;;;;;10.27;3.58;;;6.70;99.90;;;;;;5041219;28;20032;-44
2023/04/25 01:35:55;;;;;;;10.45;2.83;;;6.80;99.90;;;;;;5041600;28;20117;-44
2023/04/25 01:38:21;;;;;;;6.05;2.85;;;6.80;99.90;;;;;;5041686;28;20024;-43
2023/04/25 01:40:50;;;;;;;9.82;3.10;;;6.90;99.90;;;;;;5040817;28;20025;-43
2023/04/25 01:43:16;;;;;;;8.70;2.88;;;6.90;99.90;;;;;;5030801;28;20358;-43
2023/04/25 01:45:42;;;;;;;7.60;3.00;;;7.00;99.90;;;;;;5040507;28;20102;-45
2023/04/25 01:48:12;;;;;;;10.43;3.00;;;7.00;99.90;;;;;;5040664;28;20017;-42
2023/04/25 01:50:38;;;;;;;7.68;2.80;;;7.00;99.90;;;;;;5040322;28;20060;-43
2023/04/25 01:53:04;;;;;;;10.88;3.03;;;7.00;99.90;;;;;;5040938;28;20112;-44
2023/04/25 01:55:30;;;;;;;9.32;2.90;;;7.00;99.90;;;;;;5040962;28;20187;-43
2023/04/25 01:57:56;;;;;;;11.43;3.10;;;7.00;99.90;;;;;;5040980;28;20754;-43
2023/04/25 02:00:22;;;;;;;8.63;3.38;;;7.10;99.90;;;;;;5041809;28;20021;-42
2023/04/25 02:02:48;;;;;;;8.52;3.35;;;7.00;99.90;;;;;;5040641;28;20079;-43
2023/04/25 02:05:17;;;;;;;7.30;2.65;;;7.00;99.90;;;;;;5041921;28;20033;-43
2023/04/25 02:07:43;;;;;;;8.48;2.88;;;7.00;99.90;;;;;;5040727;28;20098;-43
2023/04/25 02:10:09;;;;;;;8.32;2.97;;;7.00;99.90;;;;;;5041549;28;20028;-43
2023/04/25 02:12:35;;;;;;;12.77;3.35;;;7.00;99.90;;;;;;5041126;28;20120;-43
2023/04/25 02:15:01;;;;;;;6.90;2.75;;;7.00;99.90;;;;;;5040244;28;20035;-44
2023/04/25 02:17:31;;;;;;;8.65;2.90;;;6.90;99.90;;;;;;5040939;28;20025;-43
2023/04/25 02:19:57;;;;;;;7.97;2.88;;;6.90;99.90;;;;;;5041229;28;20033;-43
2023/04/25 02:22:22;;;;;;;6.10;2.60;;;6.90;99.90;;;;;;5040254;28;20647;-43
2023/04/25 02:24:48;;;;;;;7.30;2.58;;;6.90;99.90;;;;;;5040534;28;20833;-42
2023/04/25 02:27:13;;;;;;;9.05;2.90;;;7.00;99.90;;;;;;5040520;28;20055;-44
2023/04/25 02:29:39;;;;;;;9.90;2.88;;;7.00;99.90;;;;;;5039609;28;20161;-43
2023/04/25 02:32:05;;;;;;;6.25;2.58;;;7.00;99.90;;;;;;5041126;28;20032;-42
2023/04/25 02:34:30;;;;;;;7.65;2.67;;;7.00;99.90;;;;;;5040924;28;20044;-43
2023/04/25 02:36:56;;;;;;;11.23;2.95;;;7.00;99.90;;;;;;5040137;28;20033;-43
2023/04/25 02:39:22;;;;;;;7.78;2.45;;;6.90;99.90;;;;;;5040872;28;20029;-44
2023/04/25 02:41:47;;;;;;;8.60;2.60;;;6.90;99.90;;;;;;5040658;28;20438;-43
2023/04/25 02:44:13;;;;;;;9.25;2.75;;;6.90;99.90;;;;;;5040660;28;20177;-44
2023/04/25 02:46:38;;;;;;;7.47;2.45;;;6.80;99.90;;;;;;5041314;28;20037;-43
2023/04/25 02:49:04;;;;;;;7.80;2.40;;;6.70;99.90;;;;;;5040995;28;20033;-42
2023/04/25 02:51:30;;;;;;;4.90;2.03;;;6.60;99.90;;;;;;5040063;28;20084;-43
2023/04/25 02:53:56;;;;;;;7.90;2.80;;;6.60;99.90;;;;;;5040297;28;20126;-42
2023/04/25 02:56:21;;;;;;;7.90;3.00;;;6.50;99.90;;;;;;5040849;28;20025;-43
2023/04/25 02:58:47;;;;;;;4.50;2.45;;;6.50;99.90;;;;;;5039835;28;20111;-43
2023/04/25 03:01:15;;;;;;;7.25;2.65;;;6.40;99.90;;;;;;5041140;28;20932;-42
2023/04/25 03:03:50;;;;;;;10.27;3.20;;;6.40;99.90;;;;;;5040427;28;20471;-43
2023/04/25 03:06:15;;;;;;;10.00;3.22;;;6.30;99.90;;;;;;5040706;28;20079;-44
2023/04/25 03:08:41;;;;;;;9.10;3.40;;;6.20;99.90;;;;;;5040238;28;20468;-42
2023/04/25 03:11:10;;;;;;;11.48;3.80;;;6.20;99.90;;;;;;5039758;28;20090;-43
2023/04/25 03:13:35;;;;;;;7.90;2.88;;;6.20;99.90;;;;;;5040065;28;20025;-43
2023/04/25 03:16:01;;;;;;;10.75;3.17;;;6.10;99.90;;;;;;5040820;28;20029;-43
2023/04/25 03:18:27;;;;;;;6.93;2.95;;;6.10;99.90;;;;;;5040151;28;20031;-44
2023/04/25 03:20:52;;;;;;;5.55;2.58;;;6.00;99.90;;;;;;5040072;28;20059;-43
2023/04/25 03:23:18;;;;;;;8.00;3.05;;;5.90;99.90;;;;;;5040211;28;20036;-42
2023/04/25 03:25:43;;;;;;;8.85;2.80;;;6.00;99.90;;;;;;5038885;28;20028;-43
2023/04/25 03:28:09;;;;;;;9.40;3.15;;;5.90;99.90;;;;;;5040912;28;20025;-43
2023/04/25 03:30:34;;;;;;;7.15;2.72;;;5.80;99.90;;;;;;5040104;28;20021;-43
2023/04/25 03:33:00;;;;;;;10.27;3.00;;;5.80;99.90;;;;;;5039821;28;20036;-43
2023/04/25 03:35:25;;;;;;;11.63;3.00;;;5.80;99.90;;;;;;5039952;28;20499;-43
2023/04/25 03:37:54;;;;;;;5.88;3.17;;;5.80;99.90;;;;;;5040105;28;20583;-43
2023/04/25 03:40:19;;;;;;;5.20;2.60;;;5.80;99.90;;;;;;5039542;28;20049;-44
2023/04/25 03:42:45;;;;;;;9.27;2.47;;;5.80;99.90;;;;;;5040124;28;20112;-43
2023/04/25 03:45:11;;;;;;;7.82;2.63;;;5.80;99.90;;;;;;5040320;28;20678;-43
2023/04/25 03:47:36;;;;;;;6.97;2.85;;;5.90;99.90;;;;;;5040014;28;20484;-43
2023/04/25 03:50:02;;;;;;;8.43;3.25;;;5.90;99.90;;;;;;5039510;28;20049;-44
2023/04/25 03:52:28;;;;;;;7.38;2.90;;;5.90;99.90;;;;;;5040133;28;20459;-44
2023/04/25 03:54:53;;;;;;;6.70;2.83;;;5.90;99.90;;;;;;5041965;28;20090;-44
2023/04/25 03:57:19;;;;;;;6.13;2.88;;;5.90;99.90;;;;;;5043680;28;20028;-44
2023/04/25 03:59:45;;;;;;;7.22;2.50;;;5.90;99.90;;;;;;5043454;28;20082;-43
2023/04/25 04:02:10;;;;;;;6.40;2.33;;;5.80;99.90;;;;;;5042554;28;20496;-43
2023/04/25 04:04:37;;;;;;;7.75;2.55;;;5.80;99.90;;;;;;5044178;28;20033;-44
2023/04/25 04:07:02;;;;;;;5.07;2.60;;;5.80;99.90;;;;;;5042696;28;20043;-44
2023/04/25 04:09:28;;;;;;;5.60;2.60;;;5.70;99.90;;;;;;5042635;28;20029;-44
2023/04/25 04:11:53;;;;;;;8.95;3.88;;;5.70;99.90;;;;;;5043405;28;20141;-44
2023/04/25 04:14:19;;;;;;;4.97;2.63;;;5.70;99.90;;;;;;5042883;28;20037;-44
2023/04/25 04:16:45;;;;;;;9.32;2.63;;;5.60;99.90;;;;;;5042586;28;20037;-43
2023/04/25 04:19:10;;;;;;;7.22;2.35;;;5.60;99.90;;;;;;5043474;28;20021;-43
2023/04/25 04:21:36;;;;;;;4.32;2.55;;;5.60;99.90;;;;;;5042419;28;20228;-44
2023/04/25 04:24:01;;;;;;;9.73;2.92;;;5.60;99.90;;;;;;5043570;28;20036;-44
2023/04/25 04:26:27;;;;;;;7.82;2.47;;;5.60;99.90;;;;;;5043734;28;20029;-44
2023/04/25 04:28:54;;;;;;;7.95;2.53;;;5.50;99.90;;;;;;5042580;28;20029;-43
2023/04/25 04:31:21;;;;;;;10.23;3.35;;;5.50;99.90;;;;;;5043377;28;20071;-43
2023/04/25 04:33:47;;;;;;;9.65;2.88;;;5.50;99.90;;;;;;5042354;28;20110;-44
2023/04/25 04:36:12;;;;;;;7.45;2.88;;;5.50;99.90;;;;;;5042309;28;20041;-43
2023/04/25 04:38:38;;;;;;;6.72;2.40;;;5.50;99.90;;;;;;5042897;28;20048;-43
2023/04/25 04:41:04;;;;;;;10.07;3.05;;;5.50;99.90;;;;;;5043156;28;20037;-43
2023/04/25 04:43:29;;;;;;;7.57;3.00;;;5.50;99.90;;;;;;5041857;28;20459;-43
2023/04/25 04:45:58;;;;;;;9.50;3.00;;;5.50;99.90;;;;;;5043011;28;20036;-43
2023/04/25 04:48:28;;;;;;;6.63;2.90;;;5.50;99.90;;;;;;5042840;28;20033;-43
2023/04/25 04:50:56;;;;;;;10.70;3.10;;;5.50;99.90;;;;;;5041553;28;20155;-44
2023/04/25 04:53:21;;;;;;;7.20;2.45;;;5.50;99.90;;;;;;5042487;28;20031;-43
2023/04/25 04:55:47;;;;;;;7.55;2.85;;;5.60;99.90;;;;;;5042365;28;20033;-44
2023/04/25 04:58:12;;;;;;;5.20;2.70;;;5.60;99.90;;;;;;5041814;28;20021;-43
2023/04/25 05:00:38;;;;;;;6.13;2.30;;;5.70;99.90;;;;;;5042137;28;20082;-33
2023/04/25 05:03:05;;;;;;;6.53;2.35;;;5.70;99.90;;;;;;5042240;28;20488;-33
2023/04/25 05:05:30;;;;;;;7.78;2.85;;;5.70;99.90;;;;;;5040068;28;20363;-34
2023/04/25 05:07:56;;;;;;;5.60;2.30;;;5.80;99.90;;;;;;5042064;28;20471;-33
2023/04/25 05:10:21;;;;;;;3.97;2.20;;;5.80;99.90;;;;;;5043149;28;20029;-34
2023/04/25 05:12:47;;;;;;;10.23;3.15;;;5.90;99.90;;;;;;5040885;28;20025;-34
2023/04/25 05:15:13;;;;;;;9.05;3.95;;;5.90;99.90;;;;;;5041950;28;20041;-34
2023/04/25 05:17:39;;;;;;;11.65;3.72;;;5.90;99.90;;;;;;5041501;28;20094;-34
2023/04/25 05:20:07;;;;;;;10.65;2.95;;;5.90;99.90;;;;;;5042272;28;20025;-33
2023/04/25 05:22:32;;;;;;;8.75;2.83;;;6.00;99.90;;;;;;5042070;28;20079;-32
2023/04/25 05:25:01;;;;;;;6.53;3.30;;;6.10;99.90;;;;;;5040738;28;20033;-33
2023/04/25 05:27:26;;;;;;;11.88;3.20;;;6.20;99.90;;;;;;5041706;28;20021;-32
2023/04/25 05:29:52;;;;;;;9.35;3.50;;;6.20;99.90;;;;;;5041505;28;20029;-33
2023/04/25 05:32:18;;;;;;;6.13;2.88;;;6.30;99.90;;;;;;5041243;28;20033;-32
2023/04/25 05:34:44;;;;;;;9.75;3.55;;;6.30;99.90;;;;;;5041634;28;20083;-33
2023/04/25 05:37:12;;;;;;;7.75;3.40;;;6.40;99.90;;;;;;5041646;28;20025;-32
2023/04/25 05:39:38;;;;;;;5.60;2.50;;;6.40;99.90;;;;;;5040519;28;20017;-34
2023/04/25 05:42:03;;;;;;;6.07;2.58;;;6.50;99.90;;;;;;5040091;28;20025;-33
2023/04/25 05:44:36;;;;;;;7.25;2.72;;;6.50;99.90;;;;;;5039929;28;20429;-34
2023/04/25 05:47:04;;;;;;;7.28;2.97;;;6.50;99.90;;;;;;5039339;28;20029;-33
2023/04/25 05:49:35;;;;;;;7.35;3.13;;;6.50;99.90;;;;;;5040275;28;20572;-33
2023/04/25 05:52:01;;;;;;;7.85;3.05;;;6.60;99.90;;;;;;5040507;28;20037;-33
2023/04/25 05:54:27;;;;;;;9.57;3.70;;;6.70;99.90;;;;;;5039759;28;20041;-34
2023/04/25 05:56:52;;;;;;;7.20;3.13;;;6.70;99.90;;;;;;5040530;28;20025;-33
2023/04/25 05:59:18;;;;;;;9.50;2.90;;;6.80;99.90;;;;;;5040887;28;20028;-33
2023/04/25 06:01:43;;;;;;;5.95;2.97;;;6.80;99.90;;;;;;5039873;28;20034;-35
2023/04/25 06:04:15;;;;;;;8.65;3.20;;;6.80;99.90;;;;;;5040513;28;20029;-33
2023/04/25 06:06:40;;;;;;;6.20;2.65;;;6.90;99.90;;;;;;5040396;28;20033;-33
2023/04/25 06:09:06;;;;;;;9.93;2.78;;;6.90;99.90;;;;;;5040223;28;20016;-32
2023/04/25 06:11:32;;;;;;;8.82;2.75;;;7.00;99.90;;;;;;5040606;28;20591;-33
2023/04/25 06:13:58;;;;;;;9.32;2.97;;;7.00;99.90;;;;;;5040066;28;20116;-34
2023/04/25 06:16:25;;;;;;;10.85;2.55;;;7.00;99.90;;;;;;5039541;28;20025;-35
2023/04/25 06:18:51;;;;;;;8.25;2.78;;;7.10;99.90;;;;;;5039695;28;20033;-34
2023/04/25 06:21:16;;;;;;;10.25;2.90;;;7.20;99.90;;;;;;5039802;28;20028;-33
2023/04/25 06:23:42;;;;;;;9.27;2.58;;;7.20;99.90;;;;;;5041211;28;20078;-34
2023/04/25 06:26:07;;;;;;;8.10;2.60;;;7.20;99.90;;;;;;5040367;28;20028;-32
2023/04/25 06:28:33;;;;;;;7.90;2.42;;;7.30;99.90;;;;;;5039408;28;20037;-34
2023/04/25 06:30:59;;;;;;;9.02;3.13;;;7.40;99.90;;;;;;5040894;28;20063;-34
2023/04/25 06:33:24;;;;;;;7.82;2.55;;;7.50;99.90;;;;;;5040425;28;20025;-33
2023/04/25 06:35:50;;;;;;;8.43;3.17;;;7.60;99.90;;;;;;5039630;28;20067;-34
2023/04/25 06:38:15;;;;;;;8.65;3.22;;;7.70;99.90;;;;;;5040476;28;20024;-35
2023/04/25 06:40:44;;;;;;;5.78;2.72;;;7.80;99.90;;;;;;5039983;28;20721;-35
2023/04/25 06:43:10;;;;;;;7.40;2.65;;;7.80;99.90;;;;;;5040062;28;20095;-33
2023/04/25 06:45:36;;;;;;;6.07;2.40;;;7.90;99.90;;;;;;5040394;28;20037;-32
2023/04/25 06:48:01;;;;;;;5.50;2.50;;;8.00;99.90;;;;;;5040722;28;20024;-34
2023/04/25 06:50:27;;;;;;;8.40;2.70;;;8.00;99.90;;;;;;5040169;28;20052;-33
2023/04/25 06:52:52;;;;;;;6.30;2.50;;;8.10;99.90;;;;;;5039967;28;20043;-34
2023/04/25 06:55:18;;;;;;;10.80;2.67;;;8.10;99.90;;;;;;5040818;28;20563;-34
2023/04/25 06:57:43;;;;;;;9.50;3.10;;;8.20;99.90;;;;;;5039444;28;20041;-34
2023/04/25 07:00:10;;;;;;;7.85;2.50;;;8.20;99.90;;;;;;5040363;28;20033;-33
2023/04/25 07:02:36;;;;;;;7.55;2.33;;;8.20;99.90;;;;;;5040582;28;20021;-33
2023/04/25 07:05:03;;;;;;;6.80;2.45;;;8.20;99.90;;;;;;5039397;28;20052;-34
2023/04/25 07:07:32;;;;;;;7.18;2.35;;;8.20;99.90;;;;;;5040303;28;20793;-34
2023/04/25 07:10:01;;;;;;;6.03;2.20;;;8.20;99.90;;;;;;5040680;28;20089;-35
2023/04/25 07:12:26;;;;;;;6.80;2.70;;;8.20;99.90;;;;;;5039873;28;20045;-33
2023/04/25 07:14:55;;;;;;;9.40;2.65;;;8.10;99.90;;;;;;5040464;28;20162;-33
2023/04/25 07:17:20;;;;;;;9.20;2.95;;;8.10;99.90;;;;;;5039752;28;20021;-34
2023/04/25 07:19:49;;;;;;;5.75;2.10;;;8.10;99.90;;;;;;5040198;28;20354;-33
2023/04/25 07:22:15;;;;;;;6.68;2.00;;;8.20;99.90;;;;;;5040324;28;20025;-34
2023/04/25 07:24:40;;;;;;;4.97;1.98;;;8.30;99.90;;;;;;5039600;28;20087;-34
2023/04/25 07:27:06;;;;;;;7.25;2.33;;;8.30;99.90;;;;;;5039277;28;20048;-33
2023/04/25 07:29:31;;;;;;;4.57;2.20;;;8.40;99.90;;;;;;5042683;28;20104;-33
2023/04/25 07:31:57;;;;;;;3.95;1.65;;;8.50;99.90;;;;;;5043191;28;20468;-35
2023/04/25 07:34:23;;;;;;;7.45;2.80;;;8.50;99.90;;;;;;5042975;28;20051;-34
2023/04/25 07:36:48;;;;;;;8.43;2.53;;;8.70;99.90;;;;;;5044312;28;20025;-34
2023/04/25 07:39:14;;;;;;;7.68;2.38;;;8.70;99.90;;;;;;5043219;28;20567;-34
2023/04/25 07:41:39;;;;;;;6.68;1.70;;;8.70;99.90;;;;;;5044070;28;20669;-34
2023/04/25 07:44:05;;;;;;;5.05;1.50;;;8.70;99.90;;;;;;5043435;28;20036;-34
2023/04/25 07:46:31;;;;;;;4.88;1.80;;;8.70;99.90;;;;;;5042776;28;20145;-33
2023/04/25 07:48:56;;;;;;;7.93;2.05;;;8.80;99.90;;;;;;5043143;28;20028;-33
2023/04/25 07:51:28;;;;;;;6.32;2.05;;;8.90;99.90;;;;;;5043865;28;20503;-33
2023/04/25 07:53:56;;;;;;;7.72;2.10;;;9.00;99.90;;;;;;5042798;28;20044;-33
2023/04/25 07:56:22;;;;;;;9.02;1.90;;;9.00;99.90;;;;;;5044322;28;20033;-34
2023/04/25 07:58:47;;;;;;;9.10;2.25;;;9.00;99.90;;;;;;5043201;28;20354;-35
2023/04/25 08:01:13;;;;;;;7.60;1.95;;;9.00;99.90;;;;;;5042827;28;20844;-34
2023/04/25 08:03:41;;;;;;;6.43;1.50;;;9.00;99.90;;;;;;5043011;28;20036;-34
2023/04/25 08:06:07;;;;;;;9.82;2.40;;;9.10;99.90;;;;;;5043375;28;20257;-34
2023/04/25 08:08:38;;;;;;;8.90;1.95;;;9.10;99.90;;;;;;5042334;28;20032;-34
2023/04/25 08:11:04;;;;;;;5.30;1.35;;;9.10;99.90;;;;;;5043197;28;20033;-33
2023/04/25 08:13:29;;;;;;;7.00;1.48;;;9.00;99.90;;;;;;5043332;28;20095;-34
2023/04/25 08:16:04;;;;;;;8.25;1.95;;;8.90;99.90;;;;;;5043802;28;20025;-38
2023/04/25 08:18:30;;;;;;;6.57;1.77;;;8.80;99.90;;;;;;5043352;28;20114;-33
2023/04/25 08:20:56;;;;;;;4.15;1.67;;;8.80;99.90;;;;;;5042553;28;20029;-35
2023/04/25 08:23:22;;;;;;;5.25;1.35;;;8.80;99.90;;;;;;5041869;28;20037;-33
2023/04/25 08:25:47;;;;;;;4.40;1.48;;;8.80;99.90;;;;;;5042683;28;20033;-33
2023/04/25 08:28:13;;;;;;;5.28;1.30;;;8.90;99.90;;;;;;5042673;28;20036;-34
2023/04/25 08:30:40;;;;;;;5.75;1.35;;;8.90;99.90;;;;;;5042669;28;20025;-33
2023/04/25 08:33:05;;;;;;;3.47;1.13;;;9.10;99.90;;;;;;5043035;28;20074;-34
2023/04/25 08:35:32;;;;;;;5.43;1.17;;;9.30;99.90;;;;;;5042019;28;20045;-34
2023/04/25 08:37:58;;;;;;;4.55;1.20;;;9.40;99.90;;;;;;5042863;28;20509;-33
2023/04/25 08:40:29;;;;;;;6.43;1.33;;;9.50;99.90;;;;;;5042064;28;20028;-33
2023/04/25 08:42:57;;;;;;;4.30;1.48;;;9.60;99.90;;;;;;5041926;28;20027;-34
2023/04/25 08:45:24;;;;;;;5.53;1.42;;;9.70;99.90;;;;;;5042305;28;20021;-34
2023/04/25 08:47:52;;;;;;;4.50;1.30;;;9.70;99.90;;;;;;5042802;28;20388;-34
2023/04/25 08:50:21;;;;;;;4.53;1.50;;;9.80;99.90;;;;;;5041413;28;20048;-37
2023/04/25 08:52:47;;;;;;;5.43;1.75;;;9.70;99.90;;;;;;5042161;28;20472;-35
2023/04/25 08:55:14;;;;;;;6.75;1.27;;;9.70;99.90;;;;;;5042166;28;20032;-34
2023/04/25 08:57:46;;;;;;;6.07;1.73;;;9.60;99.90;;;;;;5042164;28;20020;-34
2023/04/25 09:00:12;;;;;;;5.82;1.15;;;9.70;99.90;;;;;;5042602;28;20048;-34
2023/04/25 09:02:39;;;;;;;4.53;1.33;;;9.70;99.90;;;;;;5041381;28;20202;-34
2023/04/25 09:05:06;;;;;;;5.22;1.35;;;9.70;99.90;;;;;;5042052;28;20061;-34
2023/04/25 09:07:32;;;;;;;5.07;1.30;;;9.80;99.90;;;;;;5041977;28;20370;-36
2023/04/25 09:10:01;;;;;;;7.45;1.60;;;9.80;99.90;;;;;;5041502;28;20563;-36
2023/04/25 09:12:28;;;;;;;5.50;1.42;;;9.80;99.90;;;;;;5041190;28;20072;-33
2023/04/25 09:15:05;;;;;;;5.47;1.63;;;9.60;99.90;;;;;;5041443;28;20037;-34
2023/04/25 09:17:31;;;;;;;4.90;1.40;;;9.40;99.90;;;;;;5040875;28;20065;-34
2023/04/25 09:20:07;;;;;;;4.30;1.30;;;9.40;99.90;;;;;;5041732;28;20107;-33
2023/04/25 09:22:33;;;;;;;5.18;1.30;;;9.40;99.90;;;;;;5041175;28;20392;-34
2023/04/25 09:25:10;;;;;;;3.40;1.33;;;9.50;99.90;;;;;;5041413;28;20111;-33
2023/04/25 09:27:52;;;;;;;1.92;0.90;;;9.50;99.90;;;;;;5041402;28;20163;-34
2023/04/25 09:30:18;;;;;;;3.92;1.25;;;9.50;99.90;;;;;;5021943;28;20029;-34
2023/04/25 09:32:45;;;;;;;3.25;1.08;;;9.60;99.90;;;;;;5036166;28;20025;-34
2023/04/25 09:35:11;;;;;;;3.30;1.15;;;9.60;99.90;;;;;;5040822;28;20488;-34
2023/04/25 09:37:43;;;;;;;3.33;1.10;;;9.50;99.90;;;;;;5041161;28;20052;-35
2023/04/25 09:40:10;;;;;;;3.00;1.07;;;9.20;99.90;;;;;;5040742;28;20035;-33
2023/04/25 09:42:38;;;;;;;6.78;1.38;;;9.00;99.90;;;;;;5041355;28;20275;-35
2023/04/25 09:45:04;;;;;;;4.82;1.15;;;9.00;99.90;;;;;;5040082;28;20059;-34
2023/04/25 09:47:29;;;;;;;4.45;1.58;;;9.00;99.90;;;;;;5041527;28;20021;-33
2023/04/25 09:49:58;;;;;;;6.32;1.17;;;9.00;99.90;;;;;;5041478;28;20060;-34
2023/04/25 09:52:25;;;;;;;4.85;1.00;;;9.10;99.90;;;;;;5039989;28;20187;-34
2023/04/25 09:54:51;;;;;;;4.47;1.10;;;9.20;99.90;;;;;;5041880;28;20123;-33
2023/04/25 09:57:24;;;;;;;5.07;1.10;;;9.30;99.90;;;;;;5041670;28;20032;-35
2023/04/25 09:59:51;;;;;;;8.50;1.42;;;9.40;99.90;;;;;;5029389;28;20369;-33
2023/04/25 10:02:21;;;;;;;4.07;1.20;;;9.60;99.60;;;;;;5041040;28;20028;-34
2023/04/25 10:04:51;;;;;;;3.20;0.95;;;9.70;99.30;;;;;;5040832;28;20128;-33
2023/04/25 10:07:17;;;;;;;3.70;1.00;;;9.90;99.70;;;;;;5040696;28;20021;-34
2023/04/25 10:09:48;;;;;;;7.55;1.40;;;10.20;99.90;;;;;;5037517;28;20029;-34
2023/04/25 10:12:13;;;;;;;3.45;1.13;;;10.40;98.00;;;;;;5041375;28;20103;-33
2023/04/25 10:14:40;;;;;;;5.05;1.10;;;10.50;98.00;;;;;;5039691;28;20028;-34
2023/04/25 10:17:06;;;;;;;6.43;1.42;;;10.60;96.70;;;;;;5040452;28;20036;-34
2023/04/25 10:19:32;;;;;;;4.07;1.23;;;10.40;95.60;;;;;;5040514;28;20029;-34
2023/04/25 10:22:35;;;;;;;4.30;1.15;;;10.40;96.30;;;;;;5040387;28;20020;-34
2023/04/25 10:25:03;;;;;;;3.40;1.00;;;10.30;96.70;;;;;;5040433;28;20028;-34
2023/04/25 10:27:30;;;;;;;3.88;0.80;;;10.50;97.20;;;;;;5040224;28;20480;-34
2023/04/25 10:30:04;;;;;;;2.72;1.10;;;10.70;96.40;;;;;;5039901;28;20681;-34
2023/04/25 10:32:32;;;;;;;3.35;1.00;;;10.70;96.30;;;;;;5040861;28;20033;-34
2023/04/25 10:34:58;;;;;;;3.10;1.08;;;10.80;93.90;;;;;;5039388;28;20128;-34
2023/04/25 10:37:24;;;;;;;3.92;1.02;;;10.70;94.00;;;;;;5019689;28;20530;-32
2023/04/25 10:39:49;;;;;;;3.33;1.20;;;10.60;94.40;;;;;;5034034;28;20021;-34
2023/04/25 10:42:15;;;;;;;5.85;0.98;;;10.60;95.20;;;;;;5039843;28;20025;-34
2023/04/25 10:45:09;;;;;;;6.57;1.30;;;10.60;95.90;;;;;;5040110;28;20037;-34
2023/04/25 10:47:36;;;;;;;6.10;2.13;;;10.70;95.80;;;;;;5040480;28;20021;-34
2023/04/25 10:50:07;;;;;;;4.18;0.98;;;10.60;95.70;;;;;;5032516;28;20168;-34
2023/04/25 10:52:33;;;;;;;6.90;1.33;;;10.60;95.20;;;;;;5037673;28;20508;-34
2023/04/25 10:54:59;;;;;;;3.10;1.20;;;10.50;95.20;;;;;;5040742;28;20033;-34
2023/04/25 10:57:42;;;;;;;1.77;0.85;;;10.50;94.70;;;;;;5040517;28;20029;-34
2023/04/25 11:00:11;;;;;;;;;;;10.40;94.90;;;;;;5040608;28;20421;-35
2023/04/25 11:03:01;;;;;;;5.40;1.00;;;10.40;93.80;;;;;;5040440;28;19909;-33
2023/04/25 11:05:38;;;;;;;4.57;0.95;;;10.30;93.90;;;;;;5044042;28;20031;-33
2023/04/25 11:08:11;;;;;;;2.97;1.02;;;10.20;94.70;;;;;;5044424;28;20605;-35
2023/04/25 11:10:37;;;;;;;3.08;1.15;;;10.20;93.80;;;;;;5043699;28;20059;-34
2023/04/25 11:13:03;;;;;;;2.83;1.00;;;10.20;93.70;;;;;;5043963;28;20515;-34
2023/04/25 11:15:28;;;;;;;3.15;0.80;;;10.30;93.90;;;;;;5043954;28;20120;-33
2023/04/25 11:17:55;;;;;;;4.68;1.00;;;10.30;94.50;;;;;;5041100;28;20021;-33
2023/04/25 11:20:25;;;;;;;3.25;0.85;;;10.40;94.00;;;;;;5044147;28;20032;-34
2023/04/25 11:22:58;;;;;;;3.00;1.00;;;10.40;94.30;;;;;;5044314;28;20370;-34
2023/04/25 11:25:27;;;;;;;1.77;0.90;;;10.50;93.60;;;;;;5042967;28;20761;-34
2023/04/25 11:28:01;;;;;;;5.45;0.90;;;10.40;92.80;;;;;;5044444;28;20040;-33
2023/04/25 11:30:28;;;;;;;5.45;1.00;;;10.40;92.70;;;;;;5043525;28;20025;-33
2023/04/25 11:32:54;;;;;;;2.78;0.95;;;10.30;92.70;;;;;;5043326;28;20032;-34
2023/04/25 11:35:22;;;;;;;2.45;1.00;;;10.40;92.10;;;;;;5044364;28;20039;-34
2023/04/25 11:37:51;;;;;;;2.88;0.88;;;10.40;93.00;;;;;;5043307;28;20460;-34
2023/04/25 11:40:17;;;;;;;4.70;1.30;;;10.60;93.50;;;;;;5043592;28;20025;-34
2023/04/25 11:42:45;;;;;;;3.88;1.20;;;10.80;91.50;;;;;;5043491;28;20098;-35
2023/04/25 11:45:11;;;;;;;2.33;0.90;;;10.80;91.10;;;;;;5043276;28;20068;-33
2023/04/25 11:47:37;;;;;;;2.15;0.80;;;10.80;91.60;;;;;;5043644;28;20124;-34
2023/04/25 11:50:04;;;;;;;3.45;0.80;;;10.70;91.70;;;;;;5044083;28;20420;-34
2023/04/25 11:52:44;;;;;;;3.65;1.02;;;10.70;91.70;;;;;;5042741;28;20033;-33
2023/04/25 11:55:13;;;;;;;3.25;1.42;;;10.60;92.30;;;;;;5023691;28;20107;-34
2023/04/25 11:57:40;;;;;;;5.70;1.13;;;10.70;92.70;;;;;;5039169;28;20037;-33
2023/04/25 12:00:18;;;;;;;3.40;1.08;;;10.80;92.00;;;;;;5043304;28;20376;-32
2023/04/25 12:02:45;;;;;;;5.57;1.10;;;10.90;92.00;;;;;;5043335;28;20032;-34
2023/04/25 12:05:16;;;;;;;5.15;1.13;;;11.10;91.10;;;;;;5042817;28;20039;-33
2023/04/25 12:07:42;;;;;;;2.97;0.88;;;11.20;91.00;;;;;;5042247;28;20033;-33
2023/04/25 12:10:12;;;;;;;4.05;1.17;;;11.20;91.10;;;;;;5043474;28;20020;-33
2023/04/25 12:12:41;;;;;;;3.88;1.20;;;11.10;92.30;;;;;;5042137;28;20029;-33
2023/04/25 12:15:15;;;;;;;7.47;1.45;;;10.90;93.40;;;;;;5041594;28;20041;-33
2023/04/25 12:17:44;;;;;;;2.88;1.38;;;10.60;94.30;;;;;;5042739;28;20032;-34
2023/04/25 12:20:14;;;;;;;2.45;1.10;;;10.30;95.30;;;;;;5042655;28;20107;-33
2023/04/25 12:22:44;;;;;;;6.15;1.20;;;10.10;96.60;;;;;;5042990;28;20032;-32
2023/04/25 12:25:13;;;;;;;2.10;0.90;;;9.80;97.30;;;;;;5043160;28;20754;-33
2023/04/25 12:27:41;;;;;;;2.53;1.08;;;9.60;97.90;;;;;;5042441;28;20029;-33
2023/04/25 12:30:09;;;;;;;5.30;1.45;;;9.50;97.90;;;;;;5042948;28;20028;-33
2023/04/25 12:32:35;;;;;;;3.75;1.00;;;9.50;98.30;;;;;;5043062;28;20059;-34
2023/04/25 12:35:01;;;;;;;3.25;1.20;;;9.50;98.40;;;;;;5036234;28;20102;-34
2023/04/25 12:37:28;;;;;;;2.97;1.17;;;9.60;98.50;;;;;;5059818;28;20040;-34
2023/04/25 12:39:56;;;;;;;5.07;1.05;;;9.70;98.40;;;;;;5042443;28;20021;-35
2023/04/25 12:42:22;;;;;;;3.67;1.05;;;9.90;98.30;;;;;;5041628;28;20021;-34
2023/04/25 12:44:47;;;;;;;4.60;1.23;;;10.00;98.20;;;;;;5042592;28;20059;-34
2023/04/25 12:47:14;;;;;;;4.30;1.40;;;10.20;98.10;;;;;;5043091;28;20052;-32
2023/04/25 12:49:39;;;;;;;6.82;1.35;;;10.40;97.30;;;;;;5041694;28;20048;-34
2023/04/25 12:52:05;;;;;;;4.60;1.30;;;10.60;96.60;;;;;;5043094;28;20346;-34
2023/04/25 12:54:31;;;;;;;3.28;1.13;;;10.70;95.40;;;;;;5042117;28;20586;-33